Ault, Minnesota
Current Conditions -  °F | °C
As of 10:14 AM on Tuesday 21 Oct 2014 (Local Time) from KTWM Reporting Station
Overcast Overcast  
Wind Chill: 40°   Ceiling: 1700
Heat Index: 45°   Visibility: 10mi
Dew Point: 27°   Wind: 9mph
Humidity: 49%   Direction: 90°E
Pressure: 30.24"   Gusts: NA
Location:  47.3998°N, 91.9141°W
Report Text: KTWM 211514Z AUTO 09008KT 10SM OVC017 07/M03 A3024 RMK AO2
Loading
Personal Weather Stations






























Interactive Weather Map
Tropical Storm Tracking
New forecast layout! Learn more

10-Day Weather Forecast

Advertisements
Track Severe Weather on mobile